Aviation Digital Data Service (ADDS)

Output produced by METARs form (0244 UTC 24 July 2017)
found at http://www.aviationweather.gov/adds/metars/
 
KSAC 232320Z 2400/2424 21007KT P6SM SKC
       
KSAF 232339Z 2400/2424 13011G19KT P6SM BKN120 
     FM240600 01007KT P6SM SCT070 BKN250 
     FM241700 16010KT P6SM SCT070 
     FM242100 16010KT P6SM VCTS BKN070CB
       
KSAN 232332Z 2400/2506 23009KT P6SM SCT012 
     FM240200 VRB04KT P6SM BKN012 
     FM241600 VRB04KT P6SM FEW015 SCT150 
     FM241900 25009KT P6SM SCT100 
     FM250100 VRB04KT P6SM SCT012 
     FM250400 VRB04KT P6SM BKN012
       
KSAT 232320Z 2400/2506 33018KT P6SM VCSH SCT080 SCT250 
     FM240200 19008KT P6SM SCT250 
     FM241500 19015KT P6SM FEW080 SCT250
       
KSAV 232322Z 2400/2424 21008KT P6SM SCT025 BKN200 
     FM241400 23011KT P6SM SCT030 BKN250 
     FM241900 20011G16KT P6SM SCT040 BKN060
       
KSBA 240233Z 2403/2424 25006KT 4SM BR BKN003 
     FM240600 VRB03KT 5SM BR OVC005 
     FM241600 16006KT P6SM OVC007 
     FM242000 23007KT P6SM SCT010
       
KSBD 232332Z 2400/2424 27010KT P6SM SCT100 
     FM240400 VRB04KT P6SM SCT150 
     FM241400 VRB04KT 5SM HZ SCT150 
     FM242100 26010KT P6SM SCT100
       
KSBN 232330Z 2400/2424 35005KT P6SM BKN100 
     FM240900 34005KT P6SM BKN015 
     FM241500 35010KT P6SM BKN025
       
KSBP 232333Z 2400/2424 31010KT P6SM SKC 
     FM240400 VRB03KT 5SM BR OVC006 
     FM241700 30006KT P6SM SCT010 
     FM242100 30012KT P6SM SKC
       
KSBY 232325Z 2400/2424 00000KT P6SM SCT040 
     FM240300 19005KT P6SM -SHRA BKN040 
     FM240500 22006KT 3SM SHRA BKN035 
     FM240600 23007KT P6SM VCSH BKN060 
     FM241000 24006KT P6SM BKN120 
     FM242100 27008KT P6SM SCT060
       
KSCK 232320Z 2400/2424 31008KT P6SM SKC
       
KSDF 232320Z 2400/2506 28010KT P6SM FEW040 SCT200 BKN250 
     FM240300 VRB04KT P6SM FEW040 SCT250 
     TEMPO 2411/2413 5SM BR 
     FM241400 29007KT P6SM FEW045 SCT250 
     FM242300 34006KT P6SM FEW050 SCT250
       
KSDL 240219Z 2402/2424 11015KT P6SM FEW070 SCT120 SCT250 
     TEMPO 2402/2403 11020G30KT 
     FM240300 07018G25KT P6SM VCTS FEW070CB BKN100 OVC200 
     FM240500 VRB04KT P6SM VCSH SCT070 BKN100 
     FM241800 23005KT P6SM SCT070 SCT120 BKN200
       
KSDY 232330Z 2400/2424 15007KT P6SM FEW250 
     FM240700 16009KT P6SM FEW250 WS020/17040KT 
     FM241800 29013KT P6SM FEW150 
     FM242100 33014KT P6SM FEW160
       
KSEA 232320Z 2400/2506 32010KT P6SM FEW035 
     FM240600 04006KT P6SM SKC 
     FM241700 33007KT P6SM SKC
       
KSEZ 232327Z 2400/2424 VRB05KT P6SM VCSH SCT070 OVC110 
     TEMPO 2400/2404 5SM -SHRA BR BKN070 
     FM240400 VRB05KT P6SM SCT080 BKN100 
     FM241500 VRB05KT P6SM -SHRA SCT060 OVC080
       
KSFB 232326Z 2400/2424 20003KT P6SM BKN200 
     FM241400 22006KT P6SM SCT025 BKN200 
     FM241700 23008KT P6SM VCTS SCT040CB BKN120
       
KSFF 232320Z 2400/2424 24014G20KT P6SM FEW070 FEW200 
     FM240300 27007KT P6SM SKC 
     FM240800 33010G18KT P6SM SKC 
     FM241500 35010KT P6SM SKC 
     FM242100 28006KT P6SM FEW070
       
KSFO 232320Z 2400/2506 30018KT P6SM SKC 
     FM240300 28011KT P6SM FEW010 
     FM241100 25006KT P6SM SCT010 
     FM241600 26006KT P6SM FEW010 
     FM242100 25009KT P6SM SKC 
     FM242300 25018KT P6SM SKC
       
KSGF 232331Z 2400/2424 36005KT P6SM SCT250 
     FM240500 VRB03KT P6SM BKN250 
     FM241500 03006KT P6SM FEW050 SCT250
       
KSGJ 240041Z 2401/2424 22004KT P6SM FEW035 SCT150 BKN250 
     FM240500 VRB03KT P6SM FEW020 SCT100 SCT250 
     FM241300 23007KT P6SM VCSH SCT040 SCT080 BKN250 
     FM241500 22009KT P6SM VCTS SCT025 BKN040CB 
     PROB30 2417/2421 VRB15G25KT -TSRA SCT015 BKN025CB
       
KSGU 240201Z 2402/2424 VRB05KT P6SM VCTS SCT090CB BKN140 
     FM240300 12009KT P6SM VCSH SCT080 BKN140 
     FM241800 18015KT P6SM VCSH SCT060 BKN120
       
KSHR 232335Z 2400/2424 36006KT P6SM FEW120 BKN200 
     FM240300 VRB04KT P6SM VCTS FEW120CB BKN200 
     FM240600 VRB04KT P6SM SKC 
     FM241900 36012KT P6SM SCT120
       
KSHV 232341Z 2400/2424 18005KT P6SM VCTS FEW040CB SCT150 OVC250 
     TEMPO 2400/2403 3SM -TSRA BR BKN040CB BKN250 
     FM240300 18008KT P6SM SCT050 BKN150 BKN250 
     FM240900 21005KT P6SM VCTS SCT015 BKN040CB OVC100 
     TEMPO 2412/2416 3SM -TSRA BR OVC015CB 
     FM241600 24008KT P6SM VCTS BKN040CB
       
KSJC 232320Z 2400/2424 30011KT P6SM SKC 
     FM240400 29005KT P6SM SKC 
     FM240800 13006KT P6SM SKC 
     FM241600 14004KT P6SM SKC 
     FM242000 30012KT P6SM SKC
       
KSJT 240216Z 2402/2424 17009KT P6SM BKN250 
     FM241800 17008KT P6SM FEW250 
     PROB30 2418/2424 P6SM TS BKN050CB
       
TAF KSKA 231900Z 2319/2501 25012KT 9999 SKC QNH2994INS 
     TEMPO 2321/2402 25010G20KT 
     BECMG 2403/2404 30009KT 9999 SKC QNH2988INS 
     BECMG 2416/2417 34009KT 9999 SKC QNH3001INS TX35/2323Z TN15/2412Z
       
TAF KSKF 240200Z 2402/2508 VRB06KT 9999 FEW040 QNH2980INS 
     BECMG 2416/2417 18012G18KT 9999 SKC QNH2985INS TX39/2421Z TN25/2411Z
       
KSLC 240042Z 2401/2506 36003KT P6SM SCT140 BKN200 
     FM240200 16008KT P6SM FEW120 BKN180 
     FM241600 32008KT P6SM SCT100 BKN200
       
KSLE 232325Z 2400/2424 02015G25KT P6SM SKC 
     FM240500 36010KT P6SM SKC 
     FM240800 VRB03KT P6SM SKC 
     FM241500 01008KT P6SM SKC 
     FM242100 01008G15KT P6SM SKC
       
TAF KSLI 232106Z 2321/2503 20009KT 9999 SCT120 QNH2987INS 
     BECMG 2403/2404 VRB06KT 8000 BR SCT008 BKN010 QNH2985INS 
     TEMPO 2408/2414 BKN009 
     BECMG 2415/2416 VRB06KT 9999 NSW SCT010 SCT120 QNH2986INS 
     BECMG 2417/2418 15010G15KT 9999 BKN100 QNH2984INS TX28/2323Z TN20/2413Z
       
KSLK 232336Z 2400/2424 07007KT P6SM BKN100 
     FM240300 07006KT P6SM VCSH OVC080 
     FM240800 09006KT 6SM -SHRA BR OVC040 
     FM241200 09006KT 4SM +SHRA BR OVC030 
     FM241900 12009G15KT 5SM SHRA BR OVC015
       
KSLN 232320Z 2400/2424 06006KT P6SM SKC 
     FM241500 13006KT P6SM SKC
       
KSME 232339Z 2400/2424 VRB05KT P6SM VCTS SCT045CB 
     FM240300 VRB03KT P6SM BKN050 
     FM240700 VRB03KT 4SM BR SCT060 
     FM241300 VRB03KT P6SM SCT120
       
KSMF 232320Z 2400/2424 28005KT P6SM SKC 
     FM240200 18008KT P6SM SKC
       
KSMN 232335Z 2400/2424 31011KT P6SM FEW120 
     FM240300 VRB05KT P6SM SKC AMD NOT SKED
       
KSMO 232333Z 2400/2424 23008KT P6SM SKC 
     FM240800 VRB05KT P6SM OVC008 
     FM241800 23007KT P6SM SCT010
       
KSMX 232333Z 2400/2424 31010KT P6SM SKC 
     FM240300 VRB03KT 5SM BR OVC006 
     FM240800 VRB03KT 2SM BR OVC002 
     FM241600 VRB03KT 4SM BR OVC005 
     FM241800 30006KT P6SM SCT010 
     FM242100 30012KT P6SM SKC
       
KSNA 232332Z 2400/2424 23009KT P6SM SKC 
     FM240300 VRB04KT P6SM FEW012 
     FM240800 VRB04KT P6SM BKN012 
     FM241600 VRB04KT P6SM FEW012 
     FM241900 21010KT P6SM SCT100
       
KSNS 232320Z 2400/2424 29014KT P6SM SCT012 
     FM240200 29008KT P6SM BKN010 
     FM240600 31004KT P6SM OVC007 
     TEMPO 2410/2414 1/2SM FG OVC002 
     FM241700 28004KT P6SM SCT010 
     FM241900 28010KT P6SM SKC
       
KSNY 232322Z 2400/2424 16008KT P6SM SCT250 
     FM240700 21010KT P6SM SKC 
     FM241500 20017G23KT P6SM SKC
       
KSPS 240130Z 2402/2424 10010KT P6SM VCTS SCT080CB BKN250 
     TEMPO 2402/2404 VRB17G25KT 3SM -TSRA BKN080CB 
     FM240400 12006KT P6SM BKN080
       
KSRQ 232322Z 2400/2424 20005KT P6SM BKN100 BKN250 
     FM240100 VRB04KT P6SM SCT020 BKN250 
     FM241300 23006KT P6SM VCTS SCT025CB BKN100 
     FM242000 25008KT P6SM SCT040 BKN100
       
TAF AMD KSSC 240138Z 2401/2505 20009KT 9999 BKN008 QNH2993INS 
     TEMPO 2401/2402 VRB12G18KT 4800 -TSRA BKN006CB OVC100 
     BECMG 2401/2402 VRB06KT 9999 SCT020 SCT200 QNH2994INS 
     BECMG 2414/2415 22009KT 9999 SCT050 SCT200 QNH2990INS 
     TEMPO 2419/2423 25015G25KT 4800 -TSRA BKN040CB OVC100 
     BECMG 2502/2503 VRB06KT 9999 SCT020 SCT200 QNH2994INS TX34/2417Z TN22/2410Z
       
KSSF 232320Z 2400/2424 33018KT P6SM VCSH SCT080 SCT250 
     FM240200 19008KT P6SM SCT250 
     FM241500 19015KT P6SM FEW080 SCT250
       
KSTC 232327Z 2400/2424 02007KT P6SM SCT050 
     FM240500 00000KT P6SM SKC 
     TEMPO 2408/2412 4SM BR SCT002 
     FM241500 15007KT P6SM SKC
       
KSTL 232320Z 2400/2506 26006KT P6SM SCT250 
     FM240200 31006KT P6SM FEW080 
     FM242200 36006KT P6SM FEW080 
     FM250300 06004KT P6SM FEW200
       
KSTS 232320Z 2400/2424 20010KT P6SM SKC 
     FM240400 17006KT P6SM SKC 
     FM240900 20003KT P6SM OVC008 
     FM241200 00000KT 1SM BR OVC003 
     FM241700 00000KT P6SM SCT008 
     FM242000 16010KT P6SM SKC
       
KSUA 232326Z 2400/2424 00000KT P6SM BKN200 
     FM241400 22005KT P6SM SCT025 BKN200 
     FM241800 12008KT P6SM SCT040 BKN250
       
KSUN 232338Z 2400/2506 20011KT P6SM FEW110 
     FM240400 32010KT P6SM SKC 
     FM241600 13008KT P6SM SCT110 BKN200 
     FM241900 16009KT P6SM VCTS SCT100CB BKN200 AMD LTD TO CLD VIS AND WIND 2405/2413
       
KSUS 232320Z 2400/2424 26006KT P6SM SCT250 
     FM240200 31004KT P6SM FEW070 
     FM242300 01005KT P6SM FEW060
       
TAF KSUU 231903Z 2319/2501 23012KT 9999 FEW200 QNH2975INS 
     BECMG 2402/2403 23015G25KT 9999 SKC QNH2980INS 
     BECMG 2414/2415 24012G18KT 9999 SKC QNH2975INS TX36/2321Z TN18/2412Z
       
KSUX 232320Z 2400/2424 36006KT P6SM SKC 
     FM240200 04007KT P6SM SKC 
     FM240500 VRB03KT P6SM SKC 
     FM241000 VRB02KT 3SM BR SKC 
     FM241500 14008KT P6SM SKC
       
KSWF 240237Z 2403/2506 11011KT 6SM -SHRA BKN025 
     FM240700 10010KT 6SM -SHRA OVC015 
     FM241000 09012KT 4SM SHRA BR OVC008 
     FM241900 09008KT 6SM -SHRA OVC015 
     FM242200 09008KT P6SM BKN025 AMD NOT SKED
       
KSYR 232332Z 2400/2424 06006KT P6SM BKN040 
     TEMPO 2403/2407 3SM -SHRA BKN025 
     FM240700 11008KT 5SM -SHRA BR OVC015 
     TEMPO 2408/2412 BKN007 
     FM241200 16008KT 4SM -SHRA BR OVC015 
     FM241600 15009KT P6SM -SHRA BKN022 
     FM242200 VRB06KT P6SM BKN035
       
TAF KSZL 231900Z 2319/2501 VRB06KT 9999 FEW100 QNH2987INS 
     BECMG 2417/2418 03006KT 9999 SKC QNH2999INS TX33/2321Z TN22/2412Z